createdAt,value
2023-10-18T00:01:56.233Z,8.65
2023-10-18T00:04:25.075Z,9.15
2023-10-18T00:06:55.511Z,9.30
2023-10-18T00:09:41.399Z,9.98
2023-10-18T00:12:08.400Z,9.07
2023-10-18T00:14:36.383Z,9.27
2023-10-18T00:17:02.913Z,9.43
2023-10-18T00:19:29.618Z,9.77
2023-10-18T00:21:56.319Z,10.05
2023-10-18T00:24:22.812Z,10.53
2023-10-18T00:26:49.267Z,10.65
2023-10-18T00:29:15.706Z,9.75
2023-10-18T00:31:42.252Z,10.10
2023-10-18T00:34:09.248Z,10.55
2023-10-18T00:36:35.835Z,9.97
2023-10-18T00:39:15.721Z,11.15
2023-10-18T00:41:45.508Z,10.27
2023-10-18T00:44:13.258Z,10.18
2023-10-18T00:46:40.742Z,11.15
2023-10-18T00:49:15.522Z,10.80
2023-10-18T00:51:44.842Z,10.73
2023-10-18T00:54:15.636Z,11.05
2023-10-18T00:56:47.012Z,11.10
2023-10-18T00:59:22.652Z,12.00
2023-10-18T01:02:01.436Z,11.13
2023-10-18T01:04:30.307Z,11.60
2023-10-18T01:06:59.268Z,10.57
2023-10-18T01:09:27.551Z,11.32
2023-10-18T01:11:54.365Z,11.45
2023-10-18T01:14:25.710Z,11.07
2023-10-18T01:16:54.859Z,11.18
2023-10-18T01:19:22.693Z,11.88
2023-10-18T01:21:52.733Z,11.27
2023-10-18T01:24:20.007Z,11.27
2023-10-18T01:26:46.628Z,11.20
2023-10-18T01:29:13.083Z,11.30
2023-10-18T01:31:50.261Z,12.13
2023-10-18T01:34:17.893Z,12.43
2023-10-18T01:36:44.428Z,10.95
2023-10-18T01:39:20.289Z,11.83
2023-10-18T01:41:56.684Z,11.80
2023-10-18T01:44:31.657Z,11.70
2023-10-18T01:47:08.835Z,11.23
2023-10-18T01:49:45.350Z,11.65
2023-10-18T01:52:13.571Z,11.40
2023-10-18T01:54:40.480Z,11.50
2023-10-18T01:57:13.097Z,11.85
2023-10-18T01:59:40.827Z,11.57
2023-10-18T02:02:11.405Z,10.70
2023-10-18T02:04:51.945Z,11.33
2023-10-18T02:07:20.531Z,11.13
2023-10-18T02:09:51.381Z,11.55
2023-10-18T02:12:21.226Z,11.00
2023-10-18T02:14:49.455Z,11.00
2023-10-18T02:17:19.454Z,11.07
2023-10-18T02:19:46.261Z,11.07
2023-10-18T02:22:17.398Z,10.65
2023-10-18T02:24:44.841Z,10.52
2023-10-18T02:27:17.084Z,11.13
2023-10-18T02:29:45.410Z,10.73
2023-10-18T02:32:32.253Z,10.90
2023-10-18T02:34:59.164Z,11.27
2023-10-18T02:37:26.171Z,11.05
2023-10-18T02:40:04.319Z,10.95
2023-10-18T02:42:34.070Z,11.50
2023-10-18T02:45:01.593Z,11.13
2023-10-18T02:47:31.014Z,11.48
2023-10-18T02:49:57.824Z,10.05
2023-10-18T02:52:27.812Z,11.00
2023-10-18T02:54:55.448Z,10.67
2023-10-18T02:57:22.079Z,11.65
2023-10-18T02:59:51.410Z,11.43
2023-10-18T03:02:23.609Z,10.95
2023-10-18T03:04:54.155Z,11.10
2023-10-18T03:07:22.981Z,11.20
2023-10-18T03:09:50.894Z,11.73
2023-10-18T03:12:19.145Z,11.68
2023-10-18T03:14:55.810Z,11.32
2023-10-18T03:17:24.735Z,11.75
2023-10-18T03:19:55.368Z,11.70
2023-10-18T03:22:27.674Z,11.15
2023-10-18T03:24:57.523Z,12.15
2023-10-18T03:27:26.677Z,11.23
2023-10-18T03:30:11.866Z,11.93
2023-10-18T03:32:39.388Z,11.23
2023-10-18T03:35:10.542Z,11.98
2023-10-18T03:37:40.320Z,11.73
2023-10-18T03:40:27.873Z,12.63
2023-10-18T03:42:55.380Z,11.60
2023-10-18T03:45:44.834Z,12.07
2023-10-18T03:48:24.583Z,12.15
2023-10-18T03:50:53.208Z,13.13
2023-10-18T03:53:21.128Z,12.80
2023-10-18T03:55:50.930Z,12.20
2023-10-18T03:58:23.878Z,12.70
2023-10-18T04:00:55.915Z,13.65
2023-10-18T04:03:22.883Z,14.13
2023-10-18T04:05:53.509Z,13.23
2023-10-18T04:08:20.062Z,14.20
2023-10-18T04:10:59.640Z,13.53
2023-10-18T04:13:29.182Z,13.82
2023-10-18T04:16:00.928Z,13.07
2023-10-18T04:18:30.950Z,13.85
2023-10-18T04:21:00.597Z,14.65
2023-10-18T04:23:27.617Z,15.20
2023-10-18T04:26:05.929Z,14.70
2023-10-18T04:28:39.646Z,13.57
2023-10-18T04:31:10.274Z,13.15
2023-10-18T04:33:37.758Z,13.77
2023-10-18T04:36:16.258Z,13.07
2023-10-18T04:38:45.943Z,14.18
2023-10-18T04:41:29.686Z,14.23
2023-10-18T04:44:06.720Z,14.50
2023-10-18T04:46:37.266Z,14.25
2023-10-18T04:49:11.517Z,14.00
2023-10-18T04:51:40.865Z,14.63
2023-10-18T04:54:19.144Z,13.88
2023-10-18T04:56:47.699Z,14.68
2023-10-18T04:59:19.078Z,13.98
2023-10-18T05:01:55.244Z,14.40
2023-10-18T05:04:35.501Z,14.50
2023-10-18T05:07:17.249Z,15.00
2023-10-18T05:09:45.718Z,13.52
2023-10-18T05:12:29.122Z,13.95
2023-10-18T05:14:59.380Z,14.23
2023-10-18T05:17:46.171Z,14.27
2023-10-18T05:20:18.526Z,14.68
2023-10-18T05:22:53.877Z,14.80
2023-10-18T05:25:20.624Z,13.88
2023-10-18T05:28:01.375Z,14.77
2023-10-18T05:30:49.923Z,14.43
2023-10-18T05:33:38.258Z,14.95
2023-10-18T05:36:20.970Z,14.90
2023-10-18T05:38:47.465Z,15.55
2023-10-18T05:41:20.981Z,14.80
2023-10-18T05:43:47.470Z,16.15
2023-10-18T05:46:14.053Z,14.63
2023-10-18T05:48:43.176Z,15.05
2023-10-18T05:54:00.601Z,15.37
2023-10-18T05:56:36.271Z,15.60
2023-10-18T05:59:22.571Z,15.27
2023-10-18T06:01:51.089Z,15.70
2023-10-18T06:04:26.910Z,15.35
2023-10-18T06:07:06.077Z,14.60
2023-10-18T06:09:45.819Z,15.90
2023-10-18T06:12:16.625Z,16.17
2023-10-18T06:14:46.541Z,15.40
2023-10-18T06:17:13.664Z,14.90
2023-10-18T06:19:42.333Z,16.10
2023-10-18T06:22:27.504Z,15.63
2023-10-18T06:24:54.033Z,15.43
2023-10-18T06:27:20.525Z,15.65
2023-10-18T06:29:50.551Z,16.42
2023-10-18T06:32:17.290Z,16.80
2023-10-18T06:34:44.943Z,15.65
2023-10-18T06:37:23.882Z,16.17
2023-10-18T06:39:59.915Z,15.85
2023-10-18T06:42:28.229Z,15.30
2023-10-18T06:44:56.531Z,14.87
2023-10-18T06:47:32.028Z,14.98
2023-10-18T06:50:17.928Z,14.38
2023-10-18T06:52:54.596Z,15.75
2023-10-18T06:55:39.878Z,14.20
2023-10-18T06:58:13.504Z,15.57
2023-10-18T07:00:44.785Z,15.32
2023-10-18T07:03:26.025Z,14.75
2023-10-18T07:05:55.775Z,14.32
2023-10-18T07:08:34.137Z,15.25
2023-10-18T07:11:18.505Z,13.73
2023-10-18T07:13:48.500Z,14.82
2023-10-18T07:16:34.810Z,14.38
2023-10-18T07:19:05.824Z,15.27
2023-10-18T07:21:33.730Z,14.75
2023-10-18T07:24:13.035Z,14.03
2023-10-18T07:26:40.907Z,14.15
2023-10-18T07:29:10.566Z,14.13
2023-10-18T07:31:40.627Z,13.88
2023-10-18T07:34:10.674Z,14.20
2023-10-18T07:36:40.840Z,14.30
2023-10-18T07:39:07.622Z,13.65
2023-10-18T07:41:37.625Z,13.73
2023-10-18T07:44:07.989Z,13.60
2023-10-18T07:46:35.982Z,12.55
2023-10-18T07:49:06.076Z,13.53
2023-10-18T07:51:33.063Z,12.80
2023-10-18T07:54:01.103Z,13.32
2023-10-18T07:56:33.739Z,12.65
2023-10-18T07:59:19.408Z,13.15
2023-10-18T08:01:52.536Z,13.13
2023-10-18T08:04:21.487Z,12.85
2023-10-18T08:06:50.244Z,12.70
2023-10-18T08:09:21.596Z,12.30
2023-10-18T08:11:51.913Z,12.98
2023-10-18T08:14:20.166Z,12.80
2023-10-18T08:16:53.898Z,11.52
2023-10-18T08:19:24.287Z,11.70
2023-10-18T08:22:21.511Z,13.00
2023-10-18T08:24:53.127Z,11.98
2023-10-18T08:27:19.807Z,12.53
2023-10-18T08:29:56.817Z,11.48
2023-10-18T08:32:31.103Z,12.40
2023-10-18T08:35:07.673Z,11.23
2023-10-18T08:37:34.252Z,11.25
2023-10-18T08:40:00.792Z,11.60
2023-10-18T08:42:33.880Z,11.30
2023-10-18T08:45:05.216Z,11.63
2023-10-18T08:50:03.176Z,11.05
2023-10-18T08:52:36.218Z,10.53
2023-10-18T08:55:20.947Z,10.50
2023-10-18T08:57:48.458Z,10.82
2023-10-18T09:00:25.101Z,10.50
2023-10-18T09:02:55.291Z,10.68
2023-10-18T09:05:26.312Z,10.07
2023-10-18T09:07:54.282Z,9.63
2023-10-18T09:10:54.376Z,9.90
2023-10-18T09:13:22.416Z,10.13
2023-10-18T09:16:01.039Z,10.15
2023-10-18T09:18:32.943Z,9.40
2023-10-18T09:21:09.298Z,10.00
2023-10-18T09:23:36.273Z,9.02
2023-10-18T09:26:11.703Z,9.93
2023-10-18T09:28:39.129Z,9.70
2023-10-18T09:31:12.382Z,10.13
2023-10-18T09:33:41.810Z,10.23
2023-10-18T09:36:22.122Z,10.13
2023-10-18T09:38:50.317Z,9.73
2023-10-18T09:41:18.153Z,9.48
2023-10-18T09:43:48.366Z,10.07
2023-10-18T09:46:16.822Z,9.70
2023-10-18T09:48:45.238Z,9.27
2023-10-18T09:51:16.565Z,9.27
2023-10-18T09:53:49.405Z,9.48
2023-10-18T09:56:19.701Z,9.50
2023-10-18T09:58:52.952Z,9.68
2023-10-18T10:01:52.093Z,9.70
2023-10-18T10:04:19.358Z,9.40
2023-10-18T10:06:53.990Z,9.30
2023-10-18T10:09:30.506Z,8.80
2023-10-18T10:11:59.312Z,8.80
2023-10-18T10:14:30.509Z,9.65
2023-10-18T10:17:09.016Z,8.98
2023-10-18T10:19:44.047Z,8.80
2023-10-18T10:22:13.451Z,8.40
2023-10-18T10:24:52.722Z,8.52
2023-10-18T10:27:33.619Z,8.80
2023-10-18T10:30:21.838Z,8.45
2023-10-18T10:33:13.196Z,8.45
2023-10-18T10:35:46.513Z,8.60
2023-10-18T10:38:22.794Z,8.70
2023-10-18T10:40:50.290Z,8.27
2023-10-18T10:43:19.742Z,8.43
2023-10-18T10:45:47.639Z,8.65
2023-10-18T10:48:26.397Z,8.23
2023-10-18T10:51:20.882Z,8.27
2023-10-18T10:53:59.090Z,7.93
2023-10-18T10:56:28.288Z,8.32
2023-10-18T10:59:04.792Z,8.55
2023-10-18T11:01:41.365Z,8.00
2023-10-18T11:04:16.391Z,8.23
2023-10-18T11:06:47.755Z,9.07
2023-10-18T11:09:16.808Z,8.23
2023-10-18T11:11:44.887Z,7.80
2023-10-18T11:14:18.545Z,7.70
2023-10-18T11:16:55.090Z,8.10
2023-10-18T11:19:29.724Z,8.05
2023-10-18T11:21:59.593Z,7.63
2023-10-18T11:24:29.035Z,8.20
2023-10-18T11:26:58.673Z,7.87
2023-10-18T11:29:28.341Z,8.13
2023-10-18T11:32:00.021Z,7.60
2023-10-18T11:34:26.942Z,7.88
2023-10-18T11:36:56.199Z,8.00
2023-10-18T11:39:24.596Z,7.60
2023-10-18T11:41:54.395Z,7.32
2023-10-18T11:44:35.276Z,7.20
2023-10-18T11:47:20.571Z,7.30
2023-10-18T11:49:54.236Z,6.28
2023-10-18T11:52:26.716Z,6.03
2023-10-18T11:55:10.078Z,7.00
2023-10-18T11:57:41.109Z,6.60
2023-10-18T12:00:25.979Z,6.53
2023-10-18T12:03:07.018Z,6.22
2023-10-18T12:05:34.029Z,6.13
2023-10-18T12:08:07.092Z,6.85
2023-10-18T12:10:37.035Z,6.40
2023-10-18T12:13:08.136Z,5.50
2023-10-18T12:15:35.785Z,6.60
2023-10-18T12:18:05.706Z,6.07
2023-10-18T12:20:36.508Z,6.05
2023-10-18T12:23:19.951Z,5.68
2023-10-18T12:25:47.358Z,6.18
2023-10-18T12:28:14.644Z,6.70
2023-10-18T12:30:45.597Z,6.37
2023-10-18T12:33:44.682Z,6.50
2023-10-18T12:36:23.103Z,7.00
2023-10-18T12:38:50.417Z,6.13
2023-10-18T12:41:16.877Z,6.05
2023-10-18T12:43:46.985Z,6.13
2023-10-18T12:46:22.895Z,6.25
2023-10-18T12:48:57.799Z,6.93
2023-10-18T12:51:32.186Z,6.45
2023-10-18T12:53:59.110Z,6.85
2023-10-18T12:56:28.421Z,6.20
2023-10-18T12:59:17.416Z,6.95
2023-10-18T13:01:47.361Z,6.13
2023-10-18T13:04:20.055Z,6.60
2023-10-18T13:06:47.469Z,6.65
2023-10-18T13:09:15.819Z,6.70
2023-10-18T13:11:52.937Z,7.03
2023-10-18T13:14:35.297Z,6.53
2023-10-18T13:17:12.005Z,6.30
2023-10-18T13:19:45.305Z,6.03
2023-10-18T13:22:21.113Z,5.77
2023-10-18T13:24:47.636Z,5.88
2023-10-18T13:27:18.592Z,6.20
2023-10-18T13:30:01.665Z,5.90
2023-10-18T13:32:29.974Z,6.15
2023-10-18T13:34:56.728Z,5.93
2023-10-18T13:37:25.119Z,5.38
2023-10-18T13:39:53.167Z,5.72
2023-10-18T13:42:20.551Z,5.80
2023-10-18T13:44:47.506Z,5.82
2023-10-18T13:47:14.364Z,5.47
2023-10-18T13:49:41.767Z,4.93
2023-10-18T13:52:08.745Z,5.53
2023-10-18T13:54:35.743Z,5.30
2023-10-18T13:57:02.415Z,5.43
2023-10-18T13:59:30.734Z,5.60
2023-10-18T14:01:57.907Z,5.43
2023-10-18T14:04:29.987Z,5.32
2023-10-18T14:06:59.327Z,5.53
2023-10-18T14:09:26.513Z,6.10
2023-10-18T14:11:53.401Z,5.80
2023-10-18T14:14:21.010Z,5.22
2023-10-18T14:16:47.881Z,5.88
2023-10-18T14:19:19.817Z,6.45
2023-10-18T14:21:49.408Z,5.78
2023-10-18T14:24:18.376Z,6.00
2023-10-18T14:26:45.222Z,5.45
2023-10-18T14:29:13.084Z,5.78
2023-10-18T14:31:40.410Z,6.10
2023-10-18T14:34:07.058Z,6.00
2023-10-18T14:36:34.160Z,5.73
2023-10-18T14:39:01.504Z,5.90
2023-10-18T14:41:33.144Z,5.50
2023-10-18T14:44:01.159Z,5.30
2023-10-18T14:46:31.043Z,5.30
2023-10-18T14:49:00.105Z,5.13
2023-10-18T14:51:27.721Z,5.13
2023-10-18T14:53:54.329Z,5.57
2023-10-18T14:56:23.539Z,5.38
2023-10-18T14:58:52.992Z,5.05
2023-10-18T15:01:19.864Z,5.00
2023-10-18T15:03:48.054Z,5.40
2023-10-18T15:06:18.368Z,5.22
2023-10-18T15:08:45.987Z,5.53
2023-10-18T15:11:20.217Z,5.63
2023-10-18T15:13:49.439Z,5.73
2023-10-18T15:16:17.990Z,5.40
2023-10-18T15:18:47.855Z,5.80
2023-10-18T15:21:16.368Z,5.50
2023-10-18T15:23:44.939Z,4.88
2023-10-18T15:26:11.862Z,5.23
2023-10-18T15:28:40.459Z,5.00
2023-10-18T15:31:15.292Z,5.15
2023-10-18T15:33:44.118Z,5.80
2023-10-18T15:36:19.428Z,5.20
2023-10-18T15:38:49.882Z,5.70
2023-10-18T15:41:23.785Z,5.50
2023-10-18T15:43:56.911Z,5.68
2023-10-18T15:46:34.234Z,5.25
2023-10-18T15:49:01.310Z,5.50
2023-10-18T15:51:29.755Z,5.87
2023-10-18T15:54:00.345Z,5.53
2023-10-18T15:56:28.956Z,5.75
2023-10-18T15:58:56.769Z,5.68
2023-10-18T16:01:24.374Z,4.95
2023-10-18T16:03:51.904Z,5.57
2023-10-18T16:06:19.999Z,5.22
2023-10-18T16:08:48.152Z,5.57
2023-10-18T16:11:15.726Z,5.70
2023-10-18T16:13:42.429Z,5.28
2023-10-18T16:16:12.437Z,5.30
2023-10-18T16:18:42.006Z,5.38
2023-10-18T16:21:11.090Z,5.28
2023-10-18T16:23:42.728Z,5.53
2023-10-18T16:26:10.890Z,5.43
2023-10-18T16:28:38.782Z,5.40
2023-10-18T16:31:06.714Z,5.85
2023-10-18T16:33:33.724Z,5.65
2023-10-18T16:36:02.603Z,5.35
2023-10-18T16:38:30.876Z,5.70
2023-10-18T16:41:01.990Z,5.77
2023-10-18T16:43:28.480Z,5.72
2023-10-18T16:45:54.947Z,5.90
2023-10-18T16:48:21.427Z,5.53
2023-10-18T16:50:49.651Z,5.10
2023-10-18T16:53:16.289Z,5.67
2023-10-18T16:55:42.708Z,5.43
2023-10-18T16:58:09.436Z,5.90
2023-10-18T17:00:35.856Z,5.70
2023-10-18T17:03:02.422Z,5.70
2023-10-18T17:05:30.177Z,5.33
2023-10-18T17:07:57.449Z,5.60
2023-10-18T17:10:23.874Z,6.13
2023-10-18T17:12:51.251Z,5.45
2023-10-18T17:15:17.824Z,5.57
2023-10-18T17:17:44.609Z,5.47
2023-10-18T17:20:17.688Z,5.32
2023-10-18T17:22:47.874Z,5.05
2023-10-18T17:25:18.112Z,5.43
2023-10-18T17:27:46.710Z,5.90
2023-10-18T17:30:14.532Z,5.80
2023-10-18T17:32:42.281Z,5.07
2023-10-18T17:35:13.251Z,5.68
2023-10-18T17:37:47.982Z,5.47
2023-10-18T17:40:17.950Z,5.57
2023-10-18T17:42:46.055Z,5.90
2023-10-18T17:45:15.317Z,5.50
2023-10-18T17:47:43.810Z,5.80
2023-10-18T17:50:12.790Z,5.45
2023-10-18T17:52:47.140Z,5.45
2023-10-18T17:55:15.961Z,5.37
2023-10-18T17:57:46.383Z,5.88
2023-10-18T18:00:26.785Z,5.18
2023-10-18T18:03:02.157Z,5.22
2023-10-18T18:05:34.031Z,6.35
2023-10-18T18:08:01.974Z,5.90
2023-10-18T18:10:29.411Z,5.50
2023-10-18T18:12:58.892Z,5.35
2023-10-18T18:15:25.927Z,5.47
2023-10-18T18:17:52.805Z,5.68
2023-10-18T18:20:21.795Z,5.37
2023-10-18T18:22:50.305Z,5.47
2023-10-18T18:25:17.049Z,5.68
2023-10-18T18:27:44.728Z,5.50
2023-10-18T18:30:12.502Z,6.18
2023-10-18T18:32:40.485Z,5.67
2023-10-18T18:35:10.838Z,5.57
2023-10-18T18:37:40.877Z,5.65
2023-10-18T18:40:10.769Z,5.45
2023-10-18T18:42:38.758Z,5.88
2023-10-18T18:45:10.035Z,5.80
2023-10-18T18:47:41.214Z,5.30
2023-10-18T18:50:10.318Z,5.28
2023-10-18T18:52:41.711Z,5.43
2023-10-18T18:55:15.251Z,5.80
2023-10-18T18:57:44.623Z,5.40
2023-10-18T19:00:21.319Z,5.93
2023-10-18T19:02:57.104Z,5.63
2023-10-18T19:05:24.782Z,5.57
2023-10-18T19:07:53.053Z,6.25
2023-10-18T19:10:21.088Z,5.67
2023-10-18T19:12:49.535Z,5.60
2023-10-18T19:15:24.856Z,5.85
2023-10-18T19:17:51.882Z,6.05
2023-10-18T19:20:19.712Z,6.03
2023-10-18T19:22:48.446Z,5.80
2023-10-18T19:25:17.679Z,5.40
2023-10-18T19:27:44.819Z,6.07
2023-10-18T19:30:12.833Z,5.63
2023-10-18T19:32:39.800Z,5.45
2023-10-18T19:35:10.947Z,6.10
2023-10-18T19:37:38.510Z,5.80
2023-10-18T19:40:08.505Z,5.97
2023-10-18T19:42:35.648Z,5.15
2023-10-18T19:45:02.215Z,6.20
2023-10-18T19:47:29.191Z,6.10
2023-10-18T19:49:55.847Z,5.68
2023-10-18T19:52:23.156Z,6.50
2023-10-18T19:54:49.788Z,5.82
2023-10-18T19:57:16.403Z,5.85
2023-10-18T19:59:42.849Z,5.80
2023-10-18T20:02:11.480Z,5.80
2023-10-18T20:04:38.136Z,6.38
2023-10-18T20:07:04.601Z,5.80
2023-10-18T20:09:34.491Z,5.97
2023-10-18T20:12:01.471Z,6.03
2023-10-18T20:14:28.513Z,5.82
2023-10-18T20:16:54.992Z,5.47
2023-10-18T20:19:21.514Z,5.97
2023-10-18T20:21:48.056Z,5.80
2023-10-18T20:24:14.558Z,6.00
2023-10-18T20:26:41.054Z,5.95
2023-10-18T20:29:09.505Z,5.97
2023-10-18T20:31:36.083Z,6.15
2023-10-18T20:34:02.583Z,6.10
2023-10-18T20:36:29.087Z,5.77
2023-10-18T20:38:55.751Z,5.78
2023-10-18T20:41:22.199Z,6.20
2023-10-18T20:43:48.671Z,5.97
2023-10-18T20:46:17.801Z,6.35
2023-10-18T20:48:46.610Z,6.63
2023-10-18T20:51:13.962Z,6.47
2023-10-18T20:53:41.859Z,6.25
2023-10-18T20:56:09.236Z,6.15
2023-10-18T20:58:36.309Z,6.45
2023-10-18T21:01:09.234Z,6.20
2023-10-18T21:03:36.009Z,6.57
2023-10-18T21:06:14.581Z,6.70
2023-10-18T21:08:43.165Z,6.20
2023-10-18T21:11:14.026Z,6.80
2023-10-18T21:13:41.702Z,6.17
2023-10-18T21:16:10.179Z,6.10
2023-10-18T21:18:37.040Z,6.90
2023-10-18T21:21:06.516Z,6.65
2023-10-18T21:23:34.851Z,7.05
2023-10-18T21:26:04.867Z,6.57
2023-10-18T21:28:32.029Z,6.80
2023-10-18T21:31:05.867Z,6.80
2023-10-18T21:33:33.406Z,7.25
2023-10-18T21:36:11.926Z,7.40
2023-10-18T21:38:40.630Z,7.40
2023-10-18T21:41:12.322Z,7.55
2023-10-18T21:43:38.818Z,7.57
2023-10-18T21:46:06.477Z,7.63
2023-10-18T21:48:37.350Z,7.72
2023-10-18T21:51:08.473Z,7.60
2023-10-18T21:53:34.917Z,7.03
2023-10-18T21:56:02.089Z,7.22
2023-10-18T21:58:33.565Z,7.78
2023-10-18T22:01:06.972Z,7.60
2023-10-18T22:03:36.149Z,7.33
2023-10-18T22:06:04.284Z,7.30
2023-10-18T22:08:31.978Z,7.50
2023-10-18T22:11:02.193Z,8.05
2023-10-18T22:13:32.382Z,7.85
2023-10-18T22:16:03.290Z,7.73
2023-10-18T22:18:38.680Z,8.77
2023-10-18T22:21:07.299Z,8.18
2023-10-18T22:23:37.917Z,8.80
2023-10-18T22:26:14.928Z,8.43
2023-10-18T22:28:45.121Z,8.27
2023-10-18T22:31:11.766Z,9.00
2023-10-18T22:33:38.630Z,9.07
2023-10-18T22:36:09.886Z,9.57
2023-10-18T22:38:42.473Z,9.40
2023-10-18T22:41:11.987Z,9.93
2023-10-18T22:43:42.500Z,9.73
2023-10-18T22:46:17.637Z,10.02
2023-10-18T22:48:45.567Z,9.80
2023-10-18T22:51:13.150Z,10.30
2023-10-18T22:53:46.386Z,10.20
2023-10-18T22:56:16.946Z,10.43
2023-10-18T22:58:45.961Z,10.63
2023-10-18T23:01:17.456Z,10.40
2023-10-18T23:03:44.419Z,11.27
2023-10-18T23:06:11.803Z,10.97
2023-10-18T23:08:38.332Z,10.77
2023-10-18T23:11:20.047Z,10.93
2023-10-18T23:13:49.420Z,10.18
2023-10-18T23:16:37.647Z,11.75
2023-10-18T23:19:11.361Z,11.93
2023-10-18T23:21:46.847Z,11.05
2023-10-18T23:24:19.175Z,11.85
2023-10-18T23:27:04.352Z,11.90
2023-10-18T23:29:39.601Z,12.05
2023-10-18T23:32:27.646Z,12.43
2023-10-18T23:34:55.191Z,11.68
2023-10-18T23:37:29.566Z,12.90
2023-10-18T23:39:56.429Z,12.40
2023-10-18T23:42:34.762Z,12.45
2023-10-18T23:45:13.805Z,12.57
2023-10-18T23:47:40.718Z,13.30
2023-10-18T23:50:30.298Z,13.32
2023-10-18T23:53:19.543Z,13.27
2023-10-18T23:55:55.480Z,13.55
2023-10-18T23:58:30.435Z,13.20
